createdAt,value
2022-11-14T10:40:20.165Z,45.13
2022-11-14T10:43:19.339Z,41.07
2022-11-14T10:46:18.752Z,37.80
2022-11-14T10:49:16.219Z,32.71
2022-11-14T10:52:12.848Z,29.60
2022-11-14T10:55:03.290Z,25.75
2022-11-14T10:57:48.614Z,25.15
2022-11-14T11:00:33.909Z,25.23
2022-11-14T11:03:19.413Z,24.56
2022-11-14T11:06:04.689Z,25.90
2022-11-14T11:09:08.561Z,26.50
2022-11-14T11:11:59.408Z,27.15
2022-11-14T11:14:46.218Z,28.95
2022-11-14T11:17:37.090Z,31.74
2022-11-14T11:20:34.643Z,33.36
2022-11-14T11:23:26.230Z,35.00
2022-11-14T11:26:29.657Z,36.62
2022-11-14T11:29:19.649Z,39.00
2022-11-14T11:32:05.042Z,40.25
2022-11-14T11:34:51.454Z,40.23
2022-11-14T11:37:49.194Z,40.72
2022-11-14T11:40:34.542Z,41.55
2022-11-14T11:43:39.601Z,42.68
2022-11-14T11:46:44.760Z,43.76
2022-11-14T11:49:53.942Z,43.18
2022-11-14T11:52:54.749Z,42.79
2022-11-14T11:56:09.510Z,43.03
2022-11-14T11:59:17.389Z,42.93
2022-11-14T12:02:17.565Z,43.60
2022-11-14T12:05:03.279Z,42.82
2022-11-14T12:08:06.361Z,43.08
2022-11-14T12:10:53.711Z,42.61
2022-11-14T12:13:50.495Z,41.00
2022-11-14T12:16:59.269Z,39.04
2022-11-14T12:19:59.539Z,36.72
2022-11-14T12:23:07.383Z,35.07
2022-11-14T12:26:26.392Z,34.15
2022-11-14T12:29:46.598Z,33.33
2022-11-14T12:32:39.130Z,33.65
2022-11-14T12:35:30.542Z,33.68
2022-11-14T12:38:19.472Z,32.87
2022-11-14T12:41:07.420Z,30.75
2022-11-14T12:43:53.317Z,30.90
2022-11-14T12:47:07.096Z,31.83
2022-11-14T12:49:52.655Z,31.58
2022-11-14T12:52:40.680Z,30.66
2022-11-14T12:55:25.611Z,31.63
2022-11-14T12:58:17.340Z,32.44
2022-11-14T13:01:20.045Z,32.38
2022-11-14T13:04:42.511Z,33.24
2022-11-14T13:08:05.773Z,34.05
2022-11-14T13:10:51.317Z,34.14
2022-11-14T13:14:18.903Z,35.56
2022-11-14T13:17:35.014Z,36.83
2022-11-14T13:20:51.795Z,37.19
2022-11-14T13:23:43.018Z,37.35
2022-11-14T13:26:27.854Z,37.55
2022-11-14T13:29:41.010Z,37.48
2022-11-14T13:32:41.163Z,38.08
2022-11-14T13:35:33.531Z,38.40
2022-11-14T13:38:53.872Z,38.77
2022-11-14T13:42:30.635Z,38.49
2022-11-14T13:45:29.832Z,38.59
2022-11-14T13:48:26.975Z,38.52
2022-11-14T13:51:41.797Z,38.43
2022-11-14T13:54:21.692Z,38.20
2022-11-14T13:57:25.860Z,38.70
2022-11-14T14:00:20.676Z,39.04
2022-11-14T14:03:25.005Z,38.73
2022-11-14T14:06:42.237Z,38.05
2022-11-14T14:09:48.454Z,38.27
2022-11-14T14:13:16.616Z,38.35
2022-11-14T14:16:23.642Z,38.54
2022-11-14T14:19:51.681Z,38.59
2022-11-14T14:22:55.792Z,38.76
2022-11-14T14:25:49.408Z,39.14
2022-11-14T14:29:10.527Z,38.34
2022-11-14T14:32:10.573Z,38.57
2022-11-14T14:34:58.619Z,37.54
2022-11-14T14:37:51.901Z,37.78
2022-11-14T14:40:40.370Z,37.65
2022-11-14T14:43:33.299Z,37.73
2022-11-14T14:46:33.324Z,38.25
2022-11-14T14:49:24.140Z,38.89
2022-11-14T14:52:29.384Z,40.28
2022-11-14T14:55:38.808Z,40.74
2022-11-14T14:58:26.821Z,40.53
2022-11-14T15:01:32.397Z,41.50
2022-11-14T15:04:20.525Z,41.80
2022-11-14T15:07:05.663Z,42.77
2022-11-14T15:09:59.467Z,43.22
2022-11-14T15:12:45.213Z,43.95
2022-11-14T15:15:31.010Z,43.49
2022-11-14T15:18:25.288Z,43.71
2022-11-14T15:21:23.291Z,43.86
2022-11-14T15:24:20.053Z,44.39
2022-11-14T15:27:11.808Z,44.64
2022-11-14T15:30:02.206Z,45.19
2022-11-14T15:32:52.944Z,45.33
2022-11-14T15:35:39.483Z,46.01
2022-11-14T15:41:33.943Z,46.34
2022-11-14T15:44:33.215Z,46.30
2022-11-14T15:47:36.838Z,46.72
2022-11-14T15:50:28.376Z,46.73
2022-11-14T15:53:25.788Z,46.60
2022-11-14T15:56:13.169Z,46.52
2022-11-14T15:58:58.768Z,47.36
2022-11-14T16:01:46.850Z,47.07
2022-11-14T16:04:35.571Z,47.53
2022-11-14T16:07:21.141Z,47.72
2022-11-14T16:10:14.775Z,47.95
2022-11-14T16:13:00.178Z,47.95
2022-11-14T16:15:45.564Z,48.16
2022-11-14T16:18:30.891Z,47.83
2022-11-14T16:21:18.247Z,48.21
2022-11-14T16:24:04.131Z,48.20
2022-11-14T16:26:50.025Z,48.29
2022-11-14T16:29:35.515Z,47.91
2022-11-14T16:32:20.883Z,47.87
2022-11-14T16:35:13.645Z,47.61
2022-11-14T16:37:58.763Z,48.03
2022-11-14T16:40:44.515Z,47.90
2022-11-14T16:43:29.851Z,47.79
2022-11-14T16:46:15.550Z,48.01
2022-11-14T16:49:00.911Z,47.40
2022-11-14T16:51:50.884Z,47.63
2022-11-14T16:54:36.598Z,47.34
2022-11-14T16:57:22.591Z,47.24
2022-11-14T17:00:10.606Z,47.35
2022-11-14T17:02:55.860Z,47.44
2022-11-14T17:05:49.927Z,47.43
2022-11-14T17:08:35.232Z,47.54
2022-11-14T17:11:20.804Z,47.89
2022-11-14T17:14:05.897Z,47.61
2022-11-14T17:16:51.064Z,47.99
2022-11-14T17:19:38.858Z,48.00
2022-11-14T17:22:24.500Z,47.91
2022-11-14T17:25:10.345Z,47.79
2022-11-14T17:27:55.711Z,47.93
2022-11-14T17:30:41.628Z,48.57
2022-11-14T17:33:26.948Z,48.73
2022-11-14T17:36:12.465Z,48.59
2022-11-14T17:38:58.701Z,48.73
2022-11-14T17:41:44.181Z,48.63
2022-11-14T17:44:29.696Z,48.95
2022-11-14T17:47:15.342Z,48.97
2022-11-14T17:50:00.435Z,48.79
2022-11-14T17:52:45.615Z,49.03
2022-11-14T17:55:31.068Z,49.07
2022-11-14T17:58:16.318Z,50.03
2022-11-14T18:01:01.643Z,50.24
2022-11-14T18:03:47.064Z,50.36
2022-11-14T18:06:33.485Z,50.40
2022-11-14T18:09:18.994Z,50.80
2022-11-14T18:12:04.704Z,50.81
2022-11-14T18:14:49.805Z,50.26
2022-11-14T18:17:35.024Z,50.32
2022-11-14T18:20:20.418Z,50.52
2022-11-14T18:23:05.954Z,50.52
2022-11-14T18:25:51.395Z,51.59
2022-11-14T18:28:37.053Z,50.80
2022-11-14T18:31:22.732Z,51.28
2022-11-14T18:34:07.703Z,51.85
2022-11-14T18:36:53.038Z,52.10
2022-11-14T18:39:38.325Z,51.81
2022-11-14T18:42:23.796Z,51.44
2022-11-14T18:45:09.239Z,51.50
2022-11-14T18:47:54.413Z,51.33
2022-11-14T18:50:39.564Z,51.37
2022-11-14T18:53:24.837Z,51.60
2022-11-14T18:56:12.359Z,51.59
2022-11-14T18:58:57.865Z,51.99
2022-11-14T19:01:43.599Z,51.96
2022-11-14T19:04:28.768Z,51.78
2022-11-14T19:07:15.113Z,51.90
2022-11-14T19:10:00.434Z,52.38
2022-11-14T19:12:48.889Z,52.59
2022-11-14T19:15:34.242Z,52.46
2022-11-14T19:18:19.539Z,52.32
2022-11-14T19:21:06.019Z,52.37
2022-11-14T19:23:51.239Z,53.33
2022-11-14T19:26:36.521Z,53.90
2022-11-14T19:29:21.662Z,53.67
2022-11-14T19:32:07.807Z,52.86
2022-11-14T19:34:52.856Z,52.54
2022-11-14T19:37:38.455Z,53.20
2022-11-14T19:40:23.817Z,52.95
2022-11-14T19:43:11.564Z,52.69
2022-11-14T19:46:02.025Z,53.23
2022-11-14T19:48:48.013Z,53.30
2022-11-14T19:51:33.943Z,52.59
2022-11-14T19:54:19.318Z,52.05
2022-11-14T19:57:04.643Z,53.22
2022-11-14T19:59:50.018Z,52.92
2022-11-14T20:02:39.425Z,53.27
2022-11-14T20:05:24.706Z,53.26
2022-11-14T20:08:09.899Z,53.52
2022-11-14T20:11:02.955Z,53.60
2022-11-14T20:13:49.123Z,53.57
2022-11-14T20:16:36.269Z,53.51
2022-11-14T20:19:21.795Z,53.37
2022-11-14T20:22:07.303Z,53.93
2022-11-14T20:24:52.485Z,53.82
2022-11-14T20:27:38.204Z,53.96
2022-11-14T20:30:24.051Z,53.46
2022-11-14T20:33:09.534Z,53.64
2022-11-14T20:35:54.778Z,53.86
2022-11-14T20:38:40.442Z,53.72
2022-11-14T20:41:25.663Z,53.80
2022-11-14T20:44:10.898Z,54.16
2022-11-14T20:46:56.948Z,53.47
2022-11-14T20:49:43.348Z,53.39
2022-11-14T20:52:28.627Z,53.55
2022-11-14T20:55:15.587Z,53.51
2022-11-14T20:58:00.744Z,53.86
2022-11-14T21:00:46.063Z,54.21
2022-11-14T21:03:31.829Z,53.94
2022-11-14T21:06:17.385Z,53.42
2022-11-14T21:09:02.728Z,53.89
2022-11-14T21:11:47.961Z,54.24
2022-11-14T21:14:34.095Z,53.69
2022-11-14T21:17:19.500Z,54.23
2022-11-14T21:20:05.642Z,54.35
2022-11-14T21:22:50.707Z,54.31
2022-11-14T21:25:36.050Z,54.31
2022-11-14T21:28:21.440Z,53.93
2022-11-14T21:31:46.059Z,54.18
2022-11-14T21:34:31.507Z,54.38
2022-11-14T21:37:16.506Z,54.48
2022-11-14T21:40:01.780Z,54.73
2022-11-14T21:42:47.038Z,54.43
2022-11-14T21:45:32.304Z,53.71
2022-11-14T21:48:17.746Z,53.67
2022-11-14T21:51:15.124Z,53.55
2022-11-14T21:54:02.736Z,53.63
2022-11-14T21:56:48.090Z,53.39
2022-11-14T21:59:33.502Z,53.66
2022-11-14T22:02:47.905Z,53.49
2022-11-14T22:05:33.098Z,53.84
2022-11-14T22:08:18.353Z,53.97
2022-11-14T22:11:03.418Z,54.08
2022-11-14T22:13:49.349Z,53.05
2022-11-14T22:16:35.141Z,53.44
2022-11-14T22:19:20.551Z,53.82
2022-11-14T22:22:05.579Z,53.52
2022-11-14T22:24:50.861Z,53.24
2022-11-14T22:27:36.232Z,53.83
2022-11-14T22:30:21.471Z,54.13
2022-11-14T22:33:07.087Z,54.11
2022-11-14T22:35:52.108Z,54.07
2022-11-14T22:38:38.064Z,53.99
2022-11-14T22:41:33.621Z,54.54
2022-11-14T22:44:19.162Z,54.04
2022-11-14T22:47:04.347Z,54.16
2022-11-14T22:49:49.744Z,53.56
2022-11-14T22:52:34.878Z,54.03
2022-11-14T22:55:20.175Z,53.85
2022-11-14T22:58:05.584Z,53.54
2022-11-14T23:00:51.349Z,53.74
2022-11-14T23:03:37.085Z,53.53
2022-11-14T23:06:23.595Z,53.49
2022-11-14T23:09:09.170Z,53.18
2022-11-14T23:11:54.423Z,53.69
2022-11-14T23:14:39.637Z,53.80
2022-11-14T23:17:25.069Z,53.81
2022-11-14T23:20:16.049Z,53.10
2022-11-14T23:23:02.008Z,52.81
2022-11-14T23:25:47.169Z,52.89
2022-11-14T23:28:32.888Z,53.11
2022-11-14T23:31:19.040Z,52.84
2022-11-14T23:34:04.054Z,52.88
2022-11-14T23:36:49.279Z,52.63
2022-11-14T23:39:34.663Z,53.11
2022-11-14T23:42:19.957Z,52.96
2022-11-14T23:45:05.588Z,52.91
2022-11-14T23:47:50.760Z,53.09
2022-11-14T23:50:36.073Z,52.94
2022-11-14T23:53:22.215Z,52.68
2022-11-14T23:56:10.751Z,53.23
2022-11-14T23:58:55.750Z,53.98
